sensor_id;sensor_type;location;lat;lon;timestamp;pressure;altitude;pressure_sealevel;temperature
71630;BMP280;59479;51.902;8.212;2023-07-02T00:01:10;99967.47;;;19.54
71630;BMP280;59479;51.902;8.212;2023-07-02T00:03:37;99967.63;;;19.51
71630;BMP280;59479;51.902;8.212;2023-07-02T00:06:03;99961.59;;;19.52
71630;BMP280;59479;51.902;8.212;2023-07-02T00:08:28;99961.53;;;19.54
71630;BMP280;59479;51.902;8.212;2023-07-02T00:10:53;99951.50;;;19.51
71630;BMP280;59479;51.902;8.212;2023-07-02T00:13:19;99950.59;;;19.52
71630;BMP280;59479;51.902;8.212;2023-07-02T00:15:44;99961.16;;;19.44
71630;BMP280;59479;51.902;8.212;2023-07-02T00:18:09;99951.34;;;19.54
71630;BMP280;59479;51.902;8.212;2023-07-02T00:20:35;99954.56;;;19.57
71630;BMP280;59479;51.902;8.212;2023-07-02T00:23:06;99957.91;;;19.59
71630;BMP280;59479;51.902;8.212;2023-07-02T00:25:34;99957.97;;;19.58
71630;BMP280;59479;51.902;8.212;2023-07-02T00:27:59;99961.19;;;19.61
71630;BMP280;59479;51.902;8.212;2023-07-02T00:30:24;99947.91;;;19.55
71630;BMP280;59479;51.902;8.212;2023-07-02T00:32:50;99951.41;;;19.52
71630;BMP280;59479;51.902;8.212;2023-07-02T00:35:15;99957.84;;;19.61
71630;BMP280;59479;51.902;8.212;2023-07-02T00:37:40;99942.66;;;19.58
71630;BMP280;59479;51.902;8.212;2023-07-02T00:40:06;99943.00;;;19.50
71630;BMP280;59479;51.902;8.212;2023-07-02T00:42:32;99947.97;;;19.53
71630;BMP280;59479;51.902;8.212;2023-07-02T00:44:57;99965.06;;;19.51
71630;BMP280;59479;51.902;8.212;2023-07-02T00:47:28;99962.38;;;19.54
71630;BMP280;59479;51.902;8.212;2023-07-02T00:49:53;99961.00;;;19.47
71630;BMP280;59479;51.902;8.212;2023-07-02T00:52:18;99961.69;;;19.51
71630;BMP280;59479;51.902;8.212;2023-07-02T00:54:45;99945.50;;;19.52
71630;BMP280;59479;51.902;8.212;2023-07-02T00:57:11;99945.28;;;19.56
71630;BMP280;59479;51.902;8.212;2023-07-02T00:59:36;99958.91;;;19.55
71630;BMP280;59479;51.902;8.212;2023-07-02T01:02:06;99948.19;;;19.49
71630;BMP280;59479;51.902;8.212;2023-07-02T01:04:31;99945.69;;;19.47
71630;BMP280;59479;51.902;8.212;2023-07-02T01:06:57;99946.25;;;19.54
71630;BMP280;59479;51.902;8.212;2023-07-02T01:09:26;99947.97;;;19.53
71630;BMP280;59479;51.902;8.212;2023-07-02T01:11:56;99940.16;;;19.39
71630;BMP280;59479;51.902;8.212;2023-07-02T01:14:32;99932.28;;;19.44
71630;BMP280;59479;51.902;8.212;2023-07-02T01:16:59;99941.34;;;19.33
71630;BMP280;59479;51.902;8.212;2023-07-02T01:19:48;99925.19;;;19.32
71630;BMP280;59479;51.902;8.212;2023-07-02T01:22:19;99924.13;;;19.38
71630;BMP280;59479;51.902;8.212;2023-07-02T01:24:45;99933.47;;;19.37
71630;BMP280;59479;51.902;8.212;2023-07-02T01:27:12;99927.06;;;19.29
71630;BMP280;59479;51.902;8.212;2023-07-02T01:29:38;99930.66;;;19.25
71630;BMP280;59479;51.902;8.212;2023-07-02T01:32:05;99932.84;;;19.32
71630;BMP280;59479;51.902;8.212;2023-07-02T01:34:30;99927.53;;;19.37
71630;BMP280;59479;51.902;8.212;2023-07-02T01:36:56;99919.22;;;19.33
71630;BMP280;59479;51.902;8.212;2023-07-02T01:39:21;99916.69;;;19.33
71630;BMP280;59479;51.902;8.212;2023-07-02T01:44:17;99913.22;;;19.34
71630;BMP280;59479;51.902;8.212;2023-07-02T01:46:43;99908.34;;;19.30
71630;BMP280;59479;51.902;8.212;2023-07-02T01:49:09;99917.63;;;19.31
71630;BMP280;59479;51.902;8.212;2023-07-02T01:51:34;99905.78;;;19.30
71630;BMP280;59479;51.902;8.212;2023-07-02T01:54:00;99922.88;;;19.28
71630;BMP280;59479;51.902;8.212;2023-07-02T01:56:26;99935.47;;;19.31
71630;BMP280;59479;51.902;8.212;2023-07-02T01:58:51;99936.06;;;19.36
71630;BMP280;59479;51.902;8.212;2023-07-02T02:01:17;99936.13;;;19.34
71630;BMP280;59479;51.902;8.212;2023-07-02T02:03:42;99933.06;;;19.28
71630;BMP280;59479;51.902;8.212;2023-07-02T02:06:07;99943.09;;;19.31
71630;BMP280;59479;51.902;8.212;2023-07-02T02:08:33;99944.75;;;19.32
71630;BMP280;59479;51.902;8.212;2023-07-02T02:10:58;99942.41;;;19.27
71630;BMP280;59479;51.902;8.212;2023-07-02T02:13:25;99949.38;;;19.24
71630;BMP280;59479;51.902;8.212;2023-07-02T02:15:51;99944.28;;;19.24
71630;BMP280;59479;51.902;8.212;2023-07-02T02:18:16;99950.06;;;19.27
71630;BMP280;59479;51.902;8.212;2023-07-02T02:20:41;99952.06;;;19.21
71630;BMP280;59479;51.902;8.212;2023-07-02T02:23:07;99952.84;;;19.23
71630;BMP280;59479;51.902;8.212;2023-07-02T02:25:32;99945.94;;;19.25
71630;BMP280;59479;51.902;8.212;2023-07-02T02:27:57;99944.41;;;19.21
71630;BMP280;59479;51.902;8.212;2023-07-02T02:30:23;99947.75;;;19.23
71630;BMP280;59479;51.902;8.212;2023-07-02T02:32:48;99944.34;;;19.22
71630;BMP280;59479;51.902;8.212;2023-07-02T02:35:14;99946.28;;;19.17
71630;BMP280;59479;51.902;8.212;2023-07-02T02:37:39;99947.88;;;19.20
71630;BMP280;59479;51.902;8.212;2023-07-02T02:40:09;99948.63;;;19.22
71630;BMP280;59479;51.902;8.212;2023-07-02T02:42:34;99943.09;;;19.12
71630;BMP280;59479;51.902;8.212;2023-07-02T02:45:00;99952.16;;;19.19
71630;BMP280;59479;51.902;8.212;2023-07-02T02:47:25;99945.41;;;19.18
71630;BMP280;59479;51.902;8.212;2023-07-02T02:49:51;99941.47;;;19.11
71630;BMP280;59479;51.902;8.212;2023-07-02T02:52:16;99933.09;;;19.09
71630;BMP280;59479;51.902;8.212;2023-07-02T02:54:41;99929.28;;;19.18
71630;BMP280;59479;51.902;8.212;2023-07-02T02:57:07;99934.84;;;19.07
71630;BMP280;59479;51.902;8.212;2023-07-02T02:59:32;99942.72;;;19.03
71630;BMP280;59479;51.902;8.212;2023-07-02T03:01:57;99945.19;;;19.04
71630;BMP280;59479;51.902;8.212;2023-07-02T03:04:23;99948.63;;;19.03
71630;BMP280;59479;51.902;8.212;2023-07-02T03:06:50;99948.75;;;19.00
71630;BMP280;59479;51.902;8.212;2023-07-02T03:09:16;99934.16;;;19.04
71630;BMP280;59479;51.902;8.212;2023-07-02T03:11:42;99945.38;;;19.00
71630;BMP280;59479;51.902;8.212;2023-07-02T03:14:07;99953.03;;;19.00
71630;BMP280;59479;51.902;8.212;2023-07-02T03:16:33;99950.88;;;18.91
71630;BMP280;59479;51.902;8.212;2023-07-02T03:18:58;99947.94;;;19.00
71630;BMP280;59479;51.902;8.212;2023-07-02T03:21:24;99945.50;;;18.97
71630;BMP280;59479;51.902;8.212;2023-07-02T03:23:49;99948.25;;;18.93
71630;BMP280;59479;51.902;8.212;2023-07-02T03:26:15;99957.53;;;18.93
71630;BMP280;59479;51.902;8.212;2023-07-02T03:28:40;99962.41;;;18.99
71630;BMP280;59479;51.902;8.212;2023-07-02T03:31:05;99956.84;;;18.90
71630;BMP280;59479;51.902;8.212;2023-07-02T03:33:32;99951.19;;;18.84
71630;BMP280;59479;51.902;8.212;2023-07-02T03:35:57;99962.06;;;18.87
71630;BMP280;59479;51.902;8.212;2023-07-02T03:38:22;99962.06;;;18.87
71630;BMP280;59479;51.902;8.212;2023-07-02T03:40:48;99961.69;;;18.96
71630;BMP280;59479;51.902;8.212;2023-07-02T03:43:13;99953.97;;;18.97
71630;BMP280;59479;51.902;8.212;2023-07-02T03:45:38;99963.25;;;18.98
71630;BMP280;59479;51.902;8.212;2023-07-02T03:48:04;99967.91;;;18.89
71630;BMP280;59479;51.902;8.212;2023-07-02T03:50:29;99965.72;;;18.82
71630;BMP280;59479;51.902;8.212;2023-07-02T03:52:54;99965.00;;;18.78
71630;BMP280;59479;51.902;8.212;2023-07-02T03:55:20;99964.03;;;18.81
71630;BMP280;59479;51.902;8.212;2023-07-02T03:57:46;99973.75;;;18.73
71630;BMP280;59479;51.902;8.212;2023-07-02T04:00:11;99979.25;;;18.82
71630;BMP280;59479;51.902;8.212;2023-07-02T04:02:37;99997.69;;;18.87
71630;BMP280;59479;51.902;8.212;2023-07-02T04:05:02;100014.91;;;18.82
71630;BMP280;59479;51.902;8.212;2023-07-02T04:07:28;100009.91;;;18.61
71630;BMP280;59479;51.902;8.212;2023-07-02T04:09:53;100018.91;;;18.28
71630;BMP280;59479;51.902;8.212;2023-07-02T04:12:18;100024.75;;;18.30
71630;BMP280;59479;51.902;8.212;2023-07-02T04:14:44;100024.69;;;18.32
71630;BMP280;59479;51.902;8.212;2023-07-02T04:17:09;100023.47;;;18.20
71630;BMP280;59479;51.902;8.212;2023-07-02T04:19:34;100020.75;;;18.25
71630;BMP280;59479;51.902;8.212;2023-07-02T04:22:00;100013.41;;;18.17
71630;BMP280;59479;51.902;8.212;2023-07-02T04:24:25;100023.78;;;18.13
71630;BMP280;59479;51.902;8.212;2023-07-02T04:26:51;100032.50;;;18.27
71630;BMP280;59479;51.902;8.212;2023-07-02T04:29:16;100029.19;;;18.25
71630;BMP280;59479;51.902;8.212;2023-07-02T04:31:42;100029.63;;;18.36
71630;BMP280;59479;51.902;8.212;2023-07-02T04:34:07;100026.09;;;18.39
71630;BMP280;59479;51.902;8.212;2023-07-02T04:36:32;100027.78;;;18.40
71630;BMP280;59479;51.902;8.212;2023-07-02T04:38:58;100036.91;;;18.44
71630;BMP280;59479;51.902;8.212;2023-07-02T04:41:23;100041.31;;;18.40
71630;BMP280;59479;51.902;8.212;2023-07-02T04:43:48;100035.56;;;18.35
71630;BMP280;59479;51.902;8.212;2023-07-02T04:46:14;100045.69;;;18.37
71630;BMP280;59479;51.902;8.212;2023-07-02T04:48:39;100045.47;;;18.43
71630;BMP280;59479;51.902;8.212;2023-07-02T04:51:04;100048.06;;;18.41
71630;BMP280;59479;51.902;8.212;2023-07-02T04:53:30;100048.25;;;18.37
71630;BMP280;59479;51.902;8.212;2023-07-02T04:55:55;100055.63;;;18.43
71630;BMP280;59479;51.902;8.212;2023-07-02T04:58:22;100062.84;;;18.32
71630;BMP280;59479;51.902;8.212;2023-07-02T05:00:48;100066.09;;;18.35
71630;BMP280;59479;51.902;8.212;2023-07-02T05:03:13;100063.38;;;18.40
71630;BMP280;59479;51.902;8.212;2023-07-02T05:05:39;100076.88;;;18.42
71630;BMP280;59479;51.902;8.212;2023-07-02T05:08:04;100071.06;;;18.38
71630;BMP280;59479;51.902;8.212;2023-07-02T05:10:30;100074.97;;;18.47
71630;BMP280;59479;51.902;8.212;2023-07-02T05:12:55;100074.22;;;18.45
71630;BMP280;59479;51.902;8.212;2023-07-02T05:15:20;100063.00;;;18.49
71630;BMP280;59479;51.902;8.212;2023-07-02T05:17:46;100066.56;;;18.45
71630;BMP280;59479;51.902;8.212;2023-07-02T05:20:11;100071.72;;;18.43
71630;BMP280;59479;51.902;8.212;2023-07-02T05:22:37;100079.53;;;18.39
71630;BMP280;59479;51.902;8.212;2023-07-02T05:25:02;100078.88;;;18.34
71630;BMP280;59479;51.902;8.212;2023-07-02T05:27:28;100081.31;;;18.37
71630;BMP280;59479;51.902;8.212;2023-07-02T05:29:53;100083.47;;;18.46
71630;BMP280;59479;51.902;8.212;2023-07-02T05:32:19;100085.09;;;18.48
71630;BMP280;59479;51.902;8.212;2023-07-02T05:34:44;100089.47;;;18.45
71630;BMP280;59479;51.902;8.212;2023-07-02T05:37:09;100094.56;;;18.45
71630;BMP280;59479;51.902;8.212;2023-07-02T05:39:35;100096.19;;;18.46
71630;BMP280;59479;51.902;8.212;2023-07-02T05:42:00;100100.84;;;18.36
71630;BMP280;59479;51.902;8.212;2023-07-02T05:44:25;100091.81;;;18.49
71630;BMP280;59479;51.902;8.212;2023-07-02T05:46:50;100091.75;;;18.51
71630;BMP280;59479;51.902;8.212;2023-07-02T05:49:16;100092.53;;;18.52
71630;BMP280;59479;51.902;8.212;2023-07-02T05:51:41;100099.88;;;18.60
71630;BMP280;59479;51.902;8.212;2023-07-02T05:54:07;100100.69;;;18.60
71630;BMP280;59479;51.902;8.212;2023-07-02T05:56:32;100102.41;;;18.60
71630;BMP280;59479;51.902;8.212;2023-07-02T05:58:57;100106.34;;;18.67
71630;BMP280;59479;51.902;8.212;2023-07-02T06:01:23;100103.75;;;18.68
71630;BMP280;59479;51.902;8.212;2023-07-02T06:03:51;100120.53;;;18.72
71630;BMP280;59479;51.902;8.212;2023-07-02T06:06:16;100108.66;;;18.73
71630;BMP280;59479;51.902;8.212;2023-07-02T06:08:41;100118.06;;;18.71
71630;BMP280;59479;51.902;8.212;2023-07-02T06:11:07;100129.44;;;18.62
71630;BMP280;59479;51.902;8.212;2023-07-02T06:13:32;100124.00;;;18.71
71630;BMP280;59479;51.902;8.212;2023-07-02T06:15:58;100128.13;;;18.74
71630;BMP280;59479;51.902;8.212;2023-07-02T06:18:23;100123.88;;;18.74
71630;BMP280;59479;51.902;8.212;2023-07-02T06:20:48;100130.66;;;18.74
71630;BMP280;59479;51.902;8.212;2023-07-02T06:23:14;100126.28;;;18.77
71630;BMP280;59479;51.902;8.212;2023-07-02T06:25:39;100127.19;;;18.76
71630;BMP280;59479;51.902;8.212;2023-07-02T06:28:04;100122.69;;;18.83
71630;BMP280;59479;51.902;8.212;2023-07-02T06:30:30;100120.44;;;18.95
71630;BMP280;59479;51.902;8.212;2023-07-02T06:32:55;100119.44;;;18.79
71630;BMP280;59479;51.902;8.212;2023-07-02T06:35:21;100121.59;;;18.88
71630;BMP280;59479;51.902;8.212;2023-07-02T06:37:47;100142.06;;;18.85
71630;BMP280;59479;51.902;8.212;2023-07-02T06:40:12;100135.63;;;18.77
71630;BMP280;59479;51.902;8.212;2023-07-02T06:42:40;100135.31;;;18.84
71630;BMP280;59479;51.902;8.212;2023-07-02T06:45:06;100136.03;;;18.88
71630;BMP280;59479;51.902;8.212;2023-07-02T06:47:32;100141.78;;;18.93
71630;BMP280;59479;51.902;8.212;2023-07-02T06:49:57;100139.06;;;18.95
71630;BMP280;59479;51.902;8.212;2023-07-02T06:52:23;100145.59;;;18.83
71630;BMP280;59479;51.902;8.212;2023-07-02T06:54:49;100151.19;;;18.91
71630;BMP280;59479;51.902;8.212;2023-07-02T06:57:14;100147.94;;;18.87
71630;BMP280;59479;51.902;8.212;2023-07-02T06:59:40;100151.50;;;18.83
71630;BMP280;59479;51.902;8.212;2023-07-02T07:02:06;100158.22;;;18.84
71630;BMP280;59479;51.902;8.212;2023-07-02T07:04:31;100163.78;;;18.93
71630;BMP280;59479;51.902;8.212;2023-07-02T07:06:57;100152.53;;;18.99
71630;BMP280;59479;51.902;8.212;2023-07-02T07:09:22;100157.53;;;19.02
71630;BMP280;59479;51.902;8.212;2023-07-02T07:11:48;100163.06;;;19.11
71630;BMP280;59479;51.902;8.212;2023-07-02T07:14:13;100142.47;;;19.16
71630;BMP280;59479;51.902;8.212;2023-07-02T07:16:38;100150.75;;;19.21
71630;BMP280;59479;51.902;8.212;2023-07-02T07:19:04;100161.34;;;19.12
71630;BMP280;59479;51.902;8.212;2023-07-02T07:21:30;100151.66;;;19.00
71630;BMP280;59479;51.902;8.212;2023-07-02T07:23:55;100144.47;;;19.09
71630;BMP280;59479;51.902;8.212;2023-07-02T07:26:21;100163.00;;;19.13
71630;BMP280;59479;51.902;8.212;2023-07-02T07:28:46;100161.81;;;19.21
71630;BMP280;59479;51.902;8.212;2023-07-02T07:31:11;100167.59;;;19.25
71630;BMP280;59479;51.902;8.212;2023-07-02T07:33:36;100168.47;;;19.24
71630;BMP280;59479;51.902;8.212;2023-07-02T07:36:02;100173.50;;;19.45
71630;BMP280;59479;51.902;8.212;2023-07-02T07:38:27;100172.63;;;19.46
71630;BMP280;59479;51.902;8.212;2023-07-02T07:40:52;100166.38;;;19.33
71630;BMP280;59479;51.902;8.212;2023-07-02T07:43:18;100164.19;;;19.44
71630;BMP280;59479;51.902;8.212;2023-07-02T07:45:43;100171.75;;;19.45
71630;BMP280;59479;51.902;8.212;2023-07-02T07:48:09;100157.00;;;19.34
71630;BMP280;59479;51.902;8.212;2023-07-02T07:50:34;100171.38;;;19.54
71630;BMP280;59479;51.902;8.212;2023-07-02T07:52:59;100179.16;;;19.51
71630;BMP280;59479;51.902;8.212;2023-07-02T07:55:25;100172.81;;;19.41
71630;BMP280;59479;51.902;8.212;2023-07-02T07:57:50;100179.41;;;19.45
71630;BMP280;59479;51.902;8.212;2023-07-02T08:00:16;100178.78;;;19.40
71630;BMP280;59479;51.902;8.212;2023-07-02T08:02:43;100183.78;;;19.62
71630;BMP280;59479;51.902;8.212;2023-07-02T08:05:08;100177.53;;;19.69
71630;BMP280;59479;51.902;8.212;2023-07-02T08:07:35;100169.69;;;19.73
71630;BMP280;59479;51.902;8.212;2023-07-02T08:10:00;100169.28;;;19.82
71630;BMP280;59479;51.902;8.212;2023-07-02T08:12:27;100175.22;;;19.82
71630;BMP280;59479;51.902;8.212;2023-07-02T08:14:55;100183.13;;;19.77
71630;BMP280;59479;51.902;8.212;2023-07-02T08:17:20;100191.66;;;19.76
71630;BMP280;59479;51.902;8.212;2023-07-02T08:19:51;100194.53;;;19.88
71630;BMP280;59479;51.902;8.212;2023-07-02T08:22:38;100196.44;;;19.83
71630;BMP280;59479;51.902;8.212;2023-07-02T08:25:31;100200.91;;;19.98
71630;BMP280;59479;51.902;8.212;2023-07-02T08:27:59;100198.84;;;20.06
71630;BMP280;59479;51.902;8.212;2023-07-02T08:30:44;100196.69;;;19.97
71630;BMP280;59479;51.902;8.212;2023-07-02T08:33:51;100212.63;;;20.02
71630;BMP280;59479;51.902;8.212;2023-07-02T08:37:16;100210.19;;;20.17
71630;BMP280;59479;51.902;8.212;2023-07-02T08:39:54;100211.84;;;20.00
71630;BMP280;59479;51.902;8.212;2023-07-02T08:42:20;100218.13;;;20.11
71630;BMP280;59479;51.902;8.212;2023-07-02T08:44:56;100211.91;;;19.98
71630;BMP280;59479;51.902;8.212;2023-07-02T08:47:27;100225.66;;;19.96
71630;BMP280;59479;51.902;8.212;2023-07-02T08:50:02;100223.63;;;20.02
71630;BMP280;59479;51.902;8.212;2023-07-02T08:52:34;100218.34;;;20.07
71630;BMP280;59479;51.902;8.212;2023-07-02T08:54:59;100235.44;;;20.05
71630;BMP280;59479;51.902;8.212;2023-07-02T08:57:30;100227.91;;;20.02
71630;BMP280;59479;51.902;8.212;2023-07-02T08:59:55;100227.84;;;20.03
71630;BMP280;59479;51.902;8.212;2023-07-02T09:02:32;100228.28;;;20.13
71630;BMP280;59479;51.902;8.212;2023-07-02T09:05:09;100242.41;;;20.20
71630;BMP280;59479;51.902;8.212;2023-07-02T09:07:58;100246.88;;;19.96
71630;BMP280;59479;51.902;8.212;2023-07-02T09:10:33;100244.81;;;20.04
71630;BMP280;59479;51.902;8.212;2023-07-02T09:13:08;100241.03;;;20.13
71630;BMP280;59479;51.902;8.212;2023-07-02T09:15:42;100247.31;;;20.06
71630;BMP280;59479;51.902;8.212;2023-07-02T09:18:23;100249.38;;;20.16
71630;BMP280;59479;51.902;8.212;2023-07-02T09:21:06;100245.47;;;20.27
71630;BMP280;59479;51.902;8.212;2023-07-02T09:27:16;100235.72;;;20.35
71630;BMP280;59479;51.902;8.212;2023-07-02T09:29:41;100231.22;;;20.40
71630;BMP280;59479;51.902;8.212;2023-07-02T09:32:10;100249.66;;;20.28
71630;BMP280;59479;51.902;8.212;2023-07-02T09:34:39;100239.31;;;20.31
71630;BMP280;59479;51.902;8.212;2023-07-02T09:37:06;100239.09;;;20.36
71630;BMP280;59479;51.902;8.212;2023-07-02T09:39:41;100246.22;;;20.29
71630;BMP280;59479;51.902;8.212;2023-07-02T09:42:25;100250.13;;;20.36
71630;BMP280;59479;51.902;8.212;2023-07-02T09:45:00;100259.53;;;20.36
71630;BMP280;59479;51.902;8.212;2023-07-02T09:47:47;100244.28;;;20.34
71630;BMP280;59479;51.902;8.212;2023-07-02T09:50:18;100260.59;;;20.49
71630;BMP280;59479;51.902;8.212;2023-07-02T09:52:49;100250.75;;;20.41
71630;BMP280;59479;51.902;8.212;2023-07-02T09:55:20;100257.38;;;20.45
71630;BMP280;59479;51.902;8.212;2023-07-02T09:57:49;100244.66;;;20.44
71630;BMP280;59479;51.902;8.212;2023-07-02T10:00:23;100249.38;;;20.34
71630;BMP280;59479;51.902;8.212;2023-07-02T10:02:49;100269.13;;;20.49
71630;BMP280;59479;51.902;8.212;2023-07-02T10:05:32;100259.03;;;20.46
71630;BMP280;59479;51.902;8.212;2023-07-02T10:08:28;100251.31;;;20.48
71630;BMP280;59479;51.902;8.212;2023-07-02T10:11:15;100272.69;;;20.45
71630;BMP280;59479;51.902;8.212;2023-07-02T10:13:40;100271.81;;;20.28
71630;BMP280;59479;51.902;8.212;2023-07-02T10:16:07;100272.84;;;20.24
71630;BMP280;59479;51.902;8.212;2023-07-02T10:18:35;100272.69;;;20.27
71630;BMP280;59479;51.902;8.212;2023-07-02T10:21:21;100255.56;;;20.29
71630;BMP280;59479;51.902;8.212;2023-07-02T10:24:08;100273.53;;;20.27
71630;BMP280;59479;51.902;8.212;2023-07-02T10:26:33;100266.06;;;20.41
71630;BMP280;59479;51.902;8.212;2023-07-02T10:29:02;100267.44;;;20.48
71630;BMP280;59479;51.902;8.212;2023-07-02T10:31:43;100262.69;;;20.59
71630;BMP280;59479;51.902;8.212;2023-07-02T10:34:12;100265.94;;;20.63
71630;BMP280;59479;51.902;8.212;2023-07-02T10:36:37;100269.44;;;20.60
71630;BMP280;59479;51.902;8.212;2023-07-02T10:39:05;100266.97;;;20.77
71630;BMP280;59479;51.902;8.212;2023-07-02T10:41:30;100269.88;;;20.69
71630;BMP280;59479;51.902;8.212;2023-07-02T10:44:29;100266.56;;;20.86
71630;BMP280;59479;51.902;8.212;2023-07-02T10:46:55;100273.13;;;20.73
71630;BMP280;59479;51.902;8.212;2023-07-02T10:49:30;100276.72;;;20.51
71630;BMP280;59479;51.902;8.212;2023-07-02T10:52:00;100275.47;;;20.59
71630;BMP280;59479;51.902;8.212;2023-07-02T10:54:26;100270.69;;;20.70
71630;BMP280;59479;51.902;8.212;2023-07-02T10:56:59;100267.19;;;20.72
71630;BMP280;59479;51.902;8.212;2023-07-02T10:59:53;100270.75;;;20.87
71630;BMP280;59479;51.902;8.212;2023-07-02T11:02:39;100269.16;;;20.84
71630;BMP280;59479;51.902;8.212;2023-07-02T11:05:14;100268.88;;;20.90
71630;BMP280;59479;51.902;8.212;2023-07-02T11:07:44;100272.28;;;20.91
71630;BMP280;59479;51.902;8.212;2023-07-02T11:10:25;100278.53;;;20.84
71630;BMP280;59479;51.902;8.212;2023-07-02T11:12:51;100284.81;;;20.95
71630;BMP280;59479;51.902;8.212;2023-07-02T11:15:21;100268.28;;;21.02
71630;BMP280;59479;51.902;8.212;2023-07-02T11:17:50;100290.91;;;20.93
71630;BMP280;59479;51.902;8.212;2023-07-02T11:20:20;100292.03;;;20.87
71630;BMP280;59479;51.902;8.212;2023-07-02T11:22:48;100281.41;;;20.78
71630;BMP280;59479;51.902;8.212;2023-07-02T11:25:31;100288.00;;;20.82
71630;BMP280;59479;51.902;8.212;2023-07-02T11:28:04;100290.16;;;20.91
71630;BMP280;59479;51.902;8.212;2023-07-02T11:30:52;100269.94;;;21.03
71630;BMP280;59479;51.902;8.212;2023-07-02T11:33:46;100279.34;;;21.03
71630;BMP280;59479;51.902;8.212;2023-07-02T11:36:23;100284.91;;;21.10
71630;BMP280;59479;51.902;8.212;2023-07-02T11:38:59;100268.53;;;21.14
71630;BMP280;59479;51.902;8.212;2023-07-02T11:41:42;100269.44;;;21.13
71630;BMP280;59479;51.902;8.212;2023-07-02T11:44:35;100277.22;;;21.10
71630;BMP280;59479;51.902;8.212;2023-07-02T11:47:04;100275.59;;;21.09
71630;BMP280;59479;51.902;8.212;2023-07-02T11:49:30;100277.56;;;21.21
71630;BMP280;59479;51.902;8.212;2023-07-02T11:51:55;100274.94;;;21.23
71630;BMP280;59479;51.902;8.212;2023-07-02T11:54:26;100265.97;;;21.14
71630;BMP280;59479;51.902;8.212;2023-07-02T11:56:52;100284.47;;;21.19
71630;BMP280;59479;51.902;8.212;2023-07-02T11:59:17;100287.03;;;21.19
71630;BMP280;59479;51.902;8.212;2023-07-02T12:01:43;100285.69;;;21.29
71630;BMP280;59479;51.902;8.212;2023-07-02T12:04:10;100292.72;;;21.43
71630;BMP280;59479;51.902;8.212;2023-07-02T12:06:37;100286.13;;;21.37
71630;BMP280;59479;51.902;8.212;2023-07-02T12:09:02;100286.69;;;21.44
71630;BMP280;59479;51.902;8.212;2023-07-02T12:11:28;100290.53;;;21.52
71630;BMP280;59479;51.902;8.212;2023-07-02T12:13:53;100295.13;;;21.62
71630;BMP280;59479;51.902;8.212;2023-07-02T12:16:18;100300.38;;;21.59
71630;BMP280;59479;51.902;8.212;2023-07-02T12:18:44;100297.91;;;21.58
71630;BMP280;59479;51.902;8.212;2023-07-02T12:21:09;100276.38;;;21.45
71630;BMP280;59479;51.902;8.212;2023-07-02T12:23:34;100280.75;;;21.60
71630;BMP280;59479;51.902;8.212;2023-07-02T12:25:59;100290.44;;;21.53
71630;BMP280;59479;51.902;8.212;2023-07-02T12:28:25;100294.75;;;21.53
71630;BMP280;59479;51.902;8.212;2023-07-02T12:30:50;100286.19;;;21.54
71630;BMP280;59479;51.902;8.212;2023-07-02T12:33:15;100283.22;;;21.61
71630;BMP280;59479;51.902;8.212;2023-07-02T12:35:41;100290.44;;;21.53
71630;BMP280;59479;51.902;8.212;2023-07-02T12:38:06;100305.66;;;21.56
71630;BMP280;59479;51.902;8.212;2023-07-02T12:40:33;100294.06;;;21.66
71630;BMP280;59479;51.902;8.212;2023-07-02T12:42:58;100288.47;;;21.75
71630;BMP280;59479;51.902;8.212;2023-07-02T12:45:24;100296.81;;;21.79
71630;BMP280;59479;51.902;8.212;2023-07-02T12:47:49;100289.84;;;21.82
71630;BMP280;59479;51.902;8.212;2023-07-02T12:50:15;100293.50;;;21.77
71630;BMP280;59479;51.902;8.212;2023-07-02T12:52:40;100302.63;;;21.82
71630;BMP280;59479;51.902;8.212;2023-07-02T12:55:06;100298.53;;;21.95
71630;BMP280;59479;51.902;8.212;2023-07-02T12:57:31;100303.34;;;22.01
71630;BMP280;59479;51.902;8.212;2023-07-02T12:59:56;100297.56;;;21.97
71630;BMP280;59479;51.902;8.212;2023-07-02T13:02:24;100293.28;;;22.13
71630;BMP280;59479;51.902;8.212;2023-07-02T13:04:50;100297.06;;;22.23
71630;BMP280;59479;51.902;8.212;2023-07-02T13:07:21;100299.31;;;22.29
71630;BMP280;59479;51.902;8.212;2023-07-02T13:09:49;100291.06;;;22.39
71630;BMP280;59479;51.902;8.212;2023-07-02T13:12:14;100297.00;;;22.40
71630;BMP280;59479;51.902;8.212;2023-07-02T13:14:39;100312.84;;;22.31
71630;BMP280;59479;51.902;8.212;2023-07-02T13:17:05;100313.66;;;22.32
71630;BMP280;59479;51.902;8.212;2023-07-02T13:19:31;100310.53;;;22.42
71630;BMP280;59479;51.902;8.212;2023-07-02T13:21:56;100301.22;;;22.56
71630;BMP280;59479;51.902;8.212;2023-07-02T13:24:22;100307.19;;;22.72
71630;BMP280;59479;51.902;8.212;2023-07-02T13:26:47;100306.44;;;22.70
71630;BMP280;59479;51.902;8.212;2023-07-02T13:29:12;100306.94;;;22.61
71630;BMP280;59479;51.902;8.212;2023-07-02T13:31:38;100313.63;;;22.64
71630;BMP280;59479;51.902;8.212;2023-07-02T13:34:03;100312.38;;;22.55
71630;BMP280;59479;51.902;8.212;2023-07-02T13:36:28;100310.75;;;22.54
71630;BMP280;59479;51.902;8.212;2023-07-02T13:38:54;100314.19;;;22.69
71630;BMP280;59479;51.902;8.212;2023-07-02T13:41:20;100323.78;;;22.65
71630;BMP280;59479;51.902;8.212;2023-07-02T13:43:45;100309.41;;;22.63
71630;BMP280;59479;51.902;8.212;2023-07-02T13:46:10;100318.50;;;22.68
71630;BMP280;59479;51.902;8.212;2023-07-02T13:48:36;100324.88;;;22.77
71630;BMP280;59479;51.902;8.212;2023-07-02T13:51:01;100315.34;;;22.78
71630;BMP280;59479;51.902;8.212;2023-07-02T13:53:26;100311.72;;;22.82
71630;BMP280;59479;51.902;8.212;2023-07-02T13:55:52;100316.50;;;22.88
71630;BMP280;59479;51.902;8.212;2023-07-02T13:58:17;100317.03;;;22.95
71630;BMP280;59479;51.902;8.212;2023-07-02T14:00:42;100315.28;;;22.95
71630;BMP280;59479;51.902;8.212;2023-07-02T14:03:08;100309.91;;;23.00
71630;BMP280;59479;51.902;8.212;2023-07-02T14:05:33;100316.28;;;23.08
71630;BMP280;59479;51.902;8.212;2023-07-02T14:07:58;100311.16;;;23.08
71630;BMP280;59479;51.902;8.212;2023-07-02T14:10:24;100322.72;;;23.15